createdAt,value
2022-11-10T00:01:11.651Z,3.03
2022-11-10T00:04:04.799Z,3.58
2022-11-10T00:06:51.523Z,3.20
2022-11-10T00:09:38.245Z,4.13
2022-11-10T00:12:24.982Z,3.80
2022-11-10T00:15:29.867Z,3.63
2022-11-10T00:18:16.178Z,3.17
2022-11-10T00:21:06.967Z,3.30
2022-11-10T00:23:54.357Z,3.60
2022-11-10T00:26:40.915Z,3.60
2022-11-10T00:29:27.542Z,3.03
2022-11-10T00:32:14.501Z,3.00
2022-11-10T00:37:50.933Z,3.13
2022-11-10T00:40:36.814Z,3.10
2022-11-10T00:43:26.513Z,3.08
2022-11-10T00:46:13.809Z,3.40
2022-11-10T00:49:00.239Z,3.80
2022-11-10T00:51:46.150Z,3.15
2022-11-10T00:54:32.222Z,3.45
2022-11-10T00:57:18.626Z,3.20
2022-11-10T01:00:08.457Z,4.30
2022-11-10T01:03:02.704Z,3.50
2022-11-10T01:05:49.622Z,3.33
2022-11-10T01:08:40.179Z,3.30
2022-11-10T01:11:28.566Z,3.00
2022-11-10T01:14:14.964Z,5.40
2022-11-10T01:17:01.017Z,3.60
2022-11-10T01:19:46.950Z,3.95
2022-11-10T01:22:33.220Z,3.80
2022-11-10T01:25:20.684Z,3.92
2022-11-10T01:28:06.637Z,3.10
2022-11-10T01:31:05.788Z,3.25
2022-11-10T01:33:53.481Z,3.65
2022-11-10T01:36:40.754Z,3.10
2022-11-10T01:39:27.833Z,3.45
2022-11-10T01:42:15.608Z,3.08
2022-11-10T01:45:26.554Z,2.63
2022-11-10T01:48:36.596Z,3.17
2022-11-10T01:51:49.728Z,2.70
2022-11-10T01:54:42.941Z,3.03
2022-11-10T01:57:30.169Z,3.13
2022-11-10T02:00:18.645Z,3.00
2022-11-10T02:03:14.507Z,4.07
2022-11-10T02:06:01.605Z,2.80
2022-11-10T02:08:49.154Z,2.60
2022-11-10T02:11:37.885Z,2.70
2022-11-10T02:14:25.560Z,2.53
2022-11-10T02:17:12.760Z,2.85
2022-11-10T02:20:04.584Z,2.42
2022-11-10T02:22:51.110Z,2.72
2022-11-10T02:25:39.055Z,4.75
2022-11-10T02:28:26.016Z,3.28
2022-11-10T02:31:13.057Z,2.55
2022-11-10T02:33:59.092Z,3.88
2022-11-10T02:36:45.477Z,3.25
2022-11-10T02:39:31.580Z,2.40
2022-11-10T02:42:18.632Z,2.50
2022-11-10T02:45:05.628Z,1.98
2022-11-10T02:47:52.105Z,2.60
2022-11-10T02:50:40.160Z,2.10
2022-11-10T02:53:26.405Z,3.22
2022-11-10T02:56:13.685Z,2.40
2022-11-10T02:59:00.041Z,2.92
2022-11-10T03:01:46.258Z,2.95
2022-11-10T03:04:32.544Z,2.95
2022-11-10T03:07:18.493Z,2.15
2022-11-10T03:10:08.912Z,2.53
2022-11-10T03:12:58.577Z,2.50
2022-11-10T03:15:48.469Z,2.40
2022-11-10T03:18:34.623Z,1.80
2022-11-10T03:21:21.765Z,2.20
2022-11-10T03:24:07.689Z,2.05
2022-11-10T03:26:53.784Z,2.13
2022-11-10T03:29:41.336Z,1.85
2022-11-10T03:32:28.378Z,2.22
2022-11-10T03:35:16.685Z,18.95
2022-11-10T03:38:04.009Z,15.27
2022-11-10T03:41:17.676Z,14.40
2022-11-10T03:43:58.198Z,2.90
2022-11-10T03:46:51.389Z,2.55
2022-11-10T03:49:41.476Z,2.25
2022-11-10T03:52:28.001Z,2.20
2022-11-10T03:55:18.542Z,2.25
2022-11-10T03:58:05.046Z,2.50
2022-11-10T04:00:54.523Z,2.28
2022-11-10T04:03:41.542Z,2.60
2022-11-10T04:06:46.405Z,2.88
2022-11-10T04:09:32.543Z,2.72
2022-11-10T04:12:37.208Z,2.78
2022-11-10T04:15:42.325Z,2.42
2022-11-10T04:18:29.832Z,2.58
2022-11-10T04:21:16.524Z,2.38
2022-11-10T04:24:02.610Z,3.05
2022-11-10T04:26:49.552Z,2.50
2022-11-10T04:29:35.995Z,2.30
2022-11-10T04:32:21.955Z,2.58
2022-11-10T04:35:10.273Z,2.60
2022-11-10T04:37:56.684Z,2.90
2022-11-10T04:40:42.609Z,3.00
2022-11-10T04:43:29.504Z,2.30
2022-11-10T04:46:33.623Z,2.40
2022-11-10T04:49:20.576Z,2.40
2022-11-10T04:52:07.038Z,2.50
2022-11-10T04:54:53.626Z,2.60
2022-11-10T04:57:39.688Z,2.65
2022-11-10T05:00:26.569Z,3.30
2022-11-10T05:03:13.332Z,4.07
2022-11-10T05:06:00.053Z,4.82
2022-11-10T05:08:47.492Z,3.90
2022-11-10T05:11:34.413Z,4.15
2022-11-10T05:14:20.285Z,3.97
2022-11-10T05:17:06.432Z,3.95
2022-11-10T05:19:54.776Z,4.22
2022-11-10T05:22:44.107Z,7.95
2022-11-10T05:25:34.119Z,3.60
2022-11-10T05:28:20.114Z,3.85
2022-11-10T05:31:07.045Z,4.72
2022-11-10T05:33:53.176Z,4.50
2022-11-10T05:36:39.085Z,3.95
2022-11-10T05:39:25.338Z,3.63
2022-11-10T05:42:11.996Z,3.83
2022-11-10T05:44:59.517Z,3.75
2022-11-10T05:47:45.842Z,3.58
2022-11-10T05:50:32.149Z,3.83
2022-11-10T05:53:19.352Z,3.40
2022-11-10T05:56:06.584Z,3.85
2022-11-10T05:58:52.809Z,5.72
2022-11-10T06:01:40.401Z,3.80
2022-11-10T06:04:26.758Z,3.63
2022-11-10T06:07:13.477Z,4.28
2022-11-10T06:10:02.029Z,5.47
2022-11-10T06:12:49.601Z,4.82
2022-11-10T06:15:36.179Z,4.80
2022-11-10T06:18:22.098Z,4.07
2022-11-10T06:21:09.595Z,3.47
2022-11-10T06:23:55.687Z,5.20
2022-11-10T06:26:42.764Z,4.65
2022-11-10T06:29:29.269Z,3.28
2022-11-10T06:32:15.793Z,4.38
2022-11-10T06:35:01.849Z,3.60
2022-11-10T06:38:06.897Z,3.80
2022-11-10T06:40:53.102Z,3.47
2022-11-10T06:43:39.632Z,3.45
2022-11-10T06:46:26.962Z,3.35
2022-11-10T06:49:13.729Z,3.87
2022-11-10T06:51:59.840Z,4.13
2022-11-10T06:54:46.563Z,2.83
2022-11-10T06:57:40.113Z,4.20
2022-11-10T07:00:28.075Z,2.85
2022-11-10T07:03:16.253Z,3.50
2022-11-10T07:06:04.590Z,3.05
2022-11-10T07:08:50.896Z,2.65
2022-11-10T07:11:38.027Z,3.33
2022-11-10T07:14:24.391Z,3.63
2022-11-10T07:17:10.406Z,3.75
2022-11-10T07:19:58.566Z,5.10
2022-11-10T07:22:44.805Z,5.78
2022-11-10T07:25:35.512Z,4.95
2022-11-10T07:28:24.621Z,5.55
2022-11-10T07:31:14.865Z,4.25
2022-11-10T07:34:01.259Z,4.20
2022-11-10T07:36:48.527Z,3.42
2022-11-10T07:39:34.734Z,3.83
2022-11-10T07:42:21.271Z,3.42
2022-11-10T07:48:05.625Z,3.10
2022-11-10T07:50:52.569Z,2.85
2022-11-10T07:53:41.386Z,3.78
2022-11-10T07:56:29.165Z,3.10
2022-11-10T07:59:17.556Z,3.22
2022-11-10T08:04:49.313Z,2.80
2022-11-10T08:07:37.381Z,2.88
2022-11-10T08:10:24.318Z,2.90
2022-11-10T08:13:13.281Z,2.60
2022-11-10T08:16:01.318Z,3.00
2022-11-10T08:18:47.326Z,2.60
2022-11-10T08:21:38.409Z,3.50
2022-11-10T08:24:25.650Z,3.30
2022-11-10T08:27:11.590Z,3.07
2022-11-10T08:29:58.001Z,4.63
2022-11-10T08:35:42.044Z,2.80
2022-11-10T08:38:28.545Z,2.60
2022-11-10T08:41:14.290Z,2.50
2022-11-10T08:44:00.948Z,5.57
2022-11-10T08:46:47.614Z,10.50
2022-11-10T08:49:34.080Z,11.00
2022-11-10T08:52:20.636Z,11.68
2022-11-10T08:55:07.364Z,12.15
2022-11-10T08:58:03.620Z,11.85
2022-11-10T09:00:51.398Z,13.80
2022-11-10T09:03:38.254Z,17.33
2022-11-10T09:06:24.624Z,18.20
2022-11-10T09:09:10.997Z,14.25
2022-11-10T09:11:57.230Z,21.45
2022-11-10T09:14:43.410Z,20.55
2022-11-10T09:17:29.541Z,19.70
2022-11-10T09:20:22.670Z,20.40
2022-11-10T09:23:18.945Z,20.15
2022-11-10T09:26:08.241Z,19.30
2022-11-10T09:28:55.099Z,20.23
2022-11-10T09:31:45.160Z,17.60
2022-11-10T09:34:33.496Z,18.52
2022-11-10T09:37:19.392Z,13.90
2022-11-10T09:40:09.235Z,15.10
2022-11-10T09:43:02.596Z,14.10
2022-11-10T09:45:54.115Z,15.50
2022-11-10T09:48:50.906Z,15.82
2022-11-10T09:54:45.414Z,13.23
2022-11-10T09:57:32.528Z,12.65
2022-11-10T10:00:19.287Z,9.27
2022-11-10T10:03:08.062Z,10.80
2022-11-10T10:06:03.539Z,10.63
2022-11-10T10:09:21.778Z,8.77
2022-11-10T10:12:24.728Z,9.20
2022-11-10T10:15:30.010Z,8.40
2022-11-10T10:18:30.508Z,6.50
2022-11-10T10:21:48.519Z,7.63
2022-11-10T10:24:34.855Z,6.43
2022-11-10T10:27:26.085Z,6.38
2022-11-10T10:30:26.423Z,7.13
2022-11-10T10:33:19.622Z,6.53
2022-11-10T10:36:14.499Z,6.50
2022-11-10T10:39:21.508Z,6.90
2022-11-10T10:42:28.523Z,6.30
2022-11-10T10:45:24.175Z,6.45
2022-11-10T10:48:30.672Z,6.13
2022-11-10T10:54:37.242Z,5.35
2022-11-10T10:57:29.180Z,6.15
2022-11-10T11:00:17.960Z,5.88
2022-11-10T11:03:31.545Z,3.75
2022-11-10T11:06:19.393Z,2.40
2022-11-10T11:09:17.898Z,2.40
2022-11-10T11:12:13.248Z,2.90
2022-11-10T11:15:28.427Z,2.63
2022-11-10T11:18:20.726Z,2.58
2022-11-10T11:21:27.359Z,3.30
2022-11-10T11:27:24.538Z,3.17
2022-11-10T11:30:17.625Z,3.25
2022-11-10T11:33:37.614Z,3.05
2022-11-10T11:36:38.481Z,2.90
2022-11-10T11:40:05.673Z,2.25
2022-11-10T11:43:34.701Z,2.50
2022-11-10T11:46:51.580Z,3.03
2022-11-10T11:50:19.289Z,2.70
2022-11-10T11:53:41.178Z,2.72
2022-11-10T11:56:35.168Z,3.13
2022-11-10T11:59:51.435Z,2.97
2022-11-10T12:03:13.129Z,3.13
2022-11-10T12:06:20.160Z,3.00
2022-11-10T12:12:36.835Z,3.35
2022-11-10T12:15:35.727Z,2.70
2022-11-10T12:18:37.799Z,3.00
2022-11-10T12:21:59.401Z,3.40
2022-11-10T12:25:06.069Z,3.40
2022-11-10T12:28:18.510Z,3.80
2022-11-10T12:31:17.551Z,3.78
2022-11-10T12:34:23.520Z,3.75
2022-11-10T12:37:28.725Z,3.05
2022-11-10T12:40:21.691Z,3.17
2022-11-10T12:43:29.571Z,3.38
2022-11-10T12:46:16.332Z,3.78
2022-11-10T12:49:19.345Z,4.00
2022-11-10T12:52:32.109Z,4.00
2022-11-10T12:55:26.638Z,4.25
2022-11-10T12:58:15.081Z,4.13
2022-11-10T13:01:07.637Z,3.67
2022-11-10T13:04:01.222Z,3.90
2022-11-10T13:06:57.406Z,3.38
2022-11-10T13:09:44.944Z,3.33
2022-11-10T13:12:37.922Z,3.33
2022-11-10T13:15:40.315Z,3.10
2022-11-10T13:18:32.546Z,3.20
2022-11-10T13:21:52.856Z,2.90
2022-11-10T13:24:46.421Z,3.20
2022-11-10T13:27:35.844Z,2.70
2022-11-10T13:30:40.449Z,2.80
2022-11-10T13:33:26.552Z,3.40
2022-11-10T13:36:44.617Z,3.22
2022-11-10T13:39:33.517Z,4.03
2022-11-10T13:42:25.003Z,3.50
2022-11-10T13:45:41.541Z,3.20
2022-11-10T13:48:49.905Z,7.15
2022-11-10T13:52:09.650Z,3.80
2022-11-10T13:55:26.675Z,3.50
2022-11-10T13:58:28.351Z,5.35
2022-11-10T14:01:18.840Z,4.40
2022-11-10T14:04:05.377Z,5.15
2022-11-10T14:06:57.618Z,5.30
2022-11-10T14:09:52.685Z,6.18
2022-11-10T14:12:53.487Z,7.22
2022-11-10T14:15:45.076Z,7.13
2022-11-10T14:18:57.305Z,7.80
2022-11-10T14:21:58.386Z,8.70
2022-11-10T14:25:04.287Z,9.00
2022-11-10T14:27:56.822Z,8.95
2022-11-10T14:30:52.238Z,8.45
2022-11-10T14:33:40.551Z,9.57
2022-11-10T14:36:26.929Z,6.95
2022-11-10T14:39:16.999Z,6.10
2022-11-10T14:42:05.750Z,5.40
2022-11-10T14:45:16.100Z,6.10
2022-11-10T14:48:03.319Z,4.85
2022-11-10T14:50:52.465Z,4.47
2022-11-10T14:53:49.485Z,4.10
2022-11-10T14:56:37.503Z,4.25
2022-11-10T14:59:28.578Z,6.18
2022-11-10T15:02:18.803Z,4.43
2022-11-10T15:05:06.610Z,4.57
2022-11-10T15:07:58.093Z,4.78
2022-11-10T15:10:48.537Z,6.55
2022-11-10T15:13:40.070Z,8.50
2022-11-10T15:16:32.047Z,21.73
2022-11-10T15:19:34.401Z,10.82
2022-11-10T15:22:34.519Z,13.60
2022-11-10T15:25:26.109Z,14.85
2022-11-10T15:28:33.172Z,31.95
2022-11-10T15:31:36.686Z,31.90
2022-11-10T15:34:48.281Z,13.55
2022-11-10T15:37:38.335Z,8.60
2022-11-10T15:40:49.853Z,8.60
2022-11-10T15:43:37.347Z,7.55
2022-11-10T15:46:27.278Z,6.88
2022-11-10T15:49:25.874Z,5.80
2022-11-10T15:52:21.352Z,6.07
2022-11-10T15:55:21.481Z,6.93
2022-11-10T15:58:19.631Z,7.53
2022-11-10T16:01:12.466Z,8.02
2022-11-10T16:04:01.572Z,7.68
2022-11-10T16:06:48.540Z,22.23
2022-11-10T16:09:36.327Z,19.45
2022-11-10T16:12:23.628Z,13.02
2022-11-10T16:15:20.440Z,9.98
2022-11-10T16:18:34.505Z,10.50
2022-11-10T16:21:26.268Z,8.60
2022-11-10T16:24:16.070Z,13.80
2022-11-10T16:27:07.286Z,18.67
2022-11-10T16:29:53.683Z,17.05
2022-11-10T16:32:41.416Z,14.25
2022-11-10T16:35:28.205Z,14.73
2022-11-10T16:38:27.585Z,17.40
2022-11-10T16:41:17.048Z,38.90
2022-11-10T16:44:05.483Z,13.43
2022-11-10T16:49:49.127Z,10.57
2022-11-10T16:52:35.990Z,11.15
2022-11-10T16:55:22.522Z,12.60
2022-11-10T16:58:08.478Z,21.17
2022-11-10T17:01:00.279Z,28.05
2022-11-10T17:03:54.003Z,19.17
2022-11-10T17:06:40.696Z,18.35
2022-11-10T17:09:27.543Z,19.65
2022-11-10T17:12:15.859Z,18.50
2022-11-10T17:15:02.142Z,15.88
2022-11-10T17:17:55.657Z,19.60
2022-11-10T17:20:47.187Z,16.48
2022-11-10T17:23:36.631Z,14.48
2022-11-10T17:26:24.242Z,13.82
2022-11-10T17:29:18.393Z,17.55
2022-11-10T17:32:05.030Z,13.63
2022-11-10T17:34:51.328Z,13.40
2022-11-10T17:37:39.493Z,12.73
2022-11-10T17:43:15.829Z,11.85
2022-11-10T17:46:02.530Z,12.77
2022-11-10T17:48:49.848Z,13.48
2022-11-10T17:51:37.472Z,13.60
2022-11-10T17:54:25.712Z,13.25
2022-11-10T17:57:15.525Z,12.25
2022-11-10T18:00:02.840Z,12.65
2022-11-10T18:02:55.567Z,13.40
2022-11-10T18:05:42.815Z,14.07
2022-11-10T18:08:32.276Z,14.13
2022-11-10T18:11:18.796Z,12.43
2022-11-10T18:14:11.226Z,13.93
2022-11-10T18:16:57.094Z,13.38
2022-11-10T18:19:44.554Z,12.95
2022-11-10T18:22:30.478Z,12.27
2022-11-10T18:25:23.431Z,12.50
2022-11-10T18:28:14.385Z,12.88
2022-11-10T18:31:14.567Z,12.60
2022-11-10T18:34:00.391Z,11.98
2022-11-10T18:36:47.018Z,13.25
2022-11-10T18:39:33.462Z,13.77
2022-11-10T18:42:19.887Z,15.05
2022-11-10T18:45:06.725Z,15.85
2022-11-10T18:47:53.399Z,14.93
2022-11-10T18:50:39.550Z,15.93
2022-11-10T18:53:26.606Z,16.05
2022-11-10T18:56:14.298Z,13.07
2022-11-10T18:59:01.301Z,12.93
2022-11-10T19:01:47.158Z,11.77
2022-11-10T19:04:35.239Z,12.88
2022-11-10T19:07:21.017Z,12.65
2022-11-10T19:10:07.407Z,13.70
2022-11-10T19:12:53.215Z,13.60
2022-11-10T19:15:43.371Z,13.32
2022-11-10T19:18:31.652Z,14.00
2022-11-10T19:21:22.570Z,14.18
2022-11-10T19:24:11.822Z,13.65
2022-11-10T19:26:57.672Z,13.95
2022-11-10T19:29:43.788Z,13.25
2022-11-10T19:32:30.302Z,14.68
2022-11-10T19:35:17.924Z,14.88
2022-11-10T19:38:04.626Z,13.77
2022-11-10T19:40:50.973Z,15.55
2022-11-10T19:43:38.563Z,14.98
2022-11-10T19:46:29.450Z,14.77
2022-11-10T19:49:15.896Z,16.50
2022-11-10T19:52:01.979Z,15.07
2022-11-10T19:54:48.512Z,15.40
2022-11-10T19:57:36.373Z,18.42
2022-11-10T20:00:23.333Z,19.23
2022-11-10T20:03:11.390Z,19.40
2022-11-10T20:06:04.319Z,18.25
2022-11-10T20:08:50.963Z,18.20
2022-11-10T20:11:37.280Z,16.60
2022-11-10T20:14:23.335Z,19.98
2022-11-10T20:17:09.386Z,19.95
2022-11-10T20:19:55.451Z,18.83
2022-11-10T20:22:42.801Z,18.15
2022-11-10T20:25:29.567Z,18.35
2022-11-10T20:28:16.209Z,19.17
2022-11-10T20:31:05.465Z,19.65
2022-11-10T20:33:56.411Z,23.98
2022-11-10T20:36:43.081Z,17.08
2022-11-10T20:39:30.303Z,16.15
2022-11-10T20:42:17.412Z,21.73
2022-11-10T20:45:05.788Z,18.25
2022-11-10T20:47:52.309Z,17.17
2022-11-10T20:50:44.250Z,15.88
2022-11-10T20:53:32.399Z,16.63
2022-11-10T20:56:18.543Z,17.45
2022-11-10T20:59:04.930Z,20.38
2022-11-10T21:01:53.156Z,16.13
2022-11-10T21:04:43.004Z,16.95
2022-11-10T21:07:31.721Z,18.95
2022-11-10T21:10:20.553Z,18.50
2022-11-10T21:13:06.875Z,14.98
2022-11-10T21:15:57.724Z,16.25
2022-11-10T21:18:44.043Z,14.98
2022-11-10T21:21:36.329Z,17.73
2022-11-10T21:24:25.612Z,15.48
2022-11-10T21:27:12.249Z,15.70
2022-11-10T21:29:58.688Z,16.17
2022-11-10T21:32:45.004Z,14.80
2022-11-10T21:35:36.830Z,14.30
2022-11-10T21:38:24.244Z,13.43
2022-11-10T21:41:11.204Z,14.48
2022-11-10T21:43:57.845Z,15.35
2022-11-10T21:46:45.345Z,14.07
2022-11-10T21:49:31.416Z,15.38
2022-11-10T21:52:18.050Z,15.32
2022-11-10T21:55:05.362Z,14.00
2022-11-10T21:57:58.299Z,14.95
2022-11-10T22:00:44.399Z,14.15
2022-11-10T22:03:31.737Z,14.68
2022-11-10T22:06:21.215Z,14.43
2022-11-10T22:09:07.646Z,13.70
2022-11-10T22:12:12.085Z,14.07
2022-11-10T22:15:17.102Z,15.02
2022-11-10T22:18:22.363Z,13.68
2022-11-10T22:21:09.074Z,15.95
2022-11-10T22:24:13.391Z,16.17
2022-11-10T22:27:05.165Z,12.90
2022-11-10T22:29:53.726Z,14.75
2022-11-10T22:32:41.099Z,14.95
2022-11-10T22:35:45.177Z,13.70
2022-11-10T22:38:37.350Z,15.57
2022-11-10T22:41:41.992Z,13.98
2022-11-10T22:44:30.313Z,13.27
2022-11-10T22:47:17.716Z,13.93
2022-11-10T22:50:04.546Z,14.25
2022-11-10T22:52:51.154Z,13.43
2022-11-10T22:55:37.222Z,13.93
2022-11-10T22:58:24.199Z,13.95
2022-11-10T23:01:12.440Z,13.48
2022-11-10T23:04:03.321Z,15.40
2022-11-10T23:06:50.362Z,13.68
2022-11-10T23:09:37.801Z,13.05
2022-11-10T23:12:23.868Z,13.00
2022-11-10T23:15:11.393Z,12.85
2022-11-10T23:18:02.366Z,15.05
2022-11-10T23:21:08.153Z,12.50
2022-11-10T23:23:55.280Z,12.80
2022-11-10T23:26:42.607Z,11.13
2022-11-10T23:29:32.337Z,13.10
2022-11-10T23:32:23.471Z,12.30
2022-11-10T23:35:10.033Z,12.27
2022-11-10T23:37:59.216Z,11.93
2022-11-10T23:40:45.671Z,11.55
2022-11-10T23:43:35.177Z,11.88
2022-11-10T23:46:23.305Z,11.23
2022-11-10T23:51:57.452Z,11.27
2022-11-10T23:54:44.138Z,12.18
2022-11-10T23:57:30.461Z,11.43
